sensor_id;sensor_type;location;lat;lon;timestamp;temperature;humidity
8214;DHT22;4148;47.974;7.824;2022-12-04T00:01:14;2.50;99.90
8214;DHT22;4148;47.974;7.824;2022-12-04T00:03:42;2.50;99.90
8214;DHT22;4148;47.974;7.824;2022-12-04T00:06:12;2.70;99.90
8214;DHT22;4148;47.974;7.824;2022-12-04T00:08:41;2.70;99.90
8214;DHT22;4148;47.974;7.824;2022-12-04T00:11:12;2.70;99.90
8214;DHT22;4148;47.974;7.824;2022-12-04T00:13:41;2.80;99.90
8214;DHT22;4148;47.974;7.824;2022-12-04T00:16:11;2.90;99.90
8214;DHT22;4148;47.974;7.824;2022-12-04T00:18:40;2.80;99.90
8214;DHT22;4148;47.974;7.824;2022-12-04T00:21:11;2.70;99.90
8214;DHT22;4148;47.974;7.824;2022-12-04T00:23:39;2.60;99.90
8214;DHT22;4148;47.974;7.824;2022-12-04T00:26:08;2.70;99.90
8214;DHT22;4148;47.974;7.824;2022-12-04T00:28:38;2.80;99.90
8214;DHT22;4148;47.974;7.824;2022-12-04T00:31:08;2.90;99.90
8214;DHT22;4148;47.974;7.824;2022-12-04T00:33:36;2.90;99.90
8214;DHT22;4148;47.974;7.824;2022-12-04T00:36:06;2.70;99.90
8214;DHT22;4148;47.974;7.824;2022-12-04T00:38:35;2.70;99.90
8214;DHT22;4148;47.974;7.824;2022-12-04T00:41:03;2.70;99.90
8214;DHT22;4148;47.974;7.824;2022-12-04T00:43:31;2.60;99.90
8214;DHT22;4148;47.974;7.824;2022-12-04T00:46:01;2.70;99.90
8214;DHT22;4148;47.974;7.824;2022-12-04T00:48:29;2.70;99.90
8214;DHT22;4148;47.974;7.824;2022-12-04T00:51:00;2.70;99.90
8214;DHT22;4148;47.974;7.824;2022-12-04T00:53:28;2.60;99.90
8214;DHT22;4148;47.974;7.824;2022-12-04T00:55:56;2.60;99.90
8214;DHT22;4148;47.974;7.824;2022-12-04T00:58:24;2.60;99.90
8214;DHT22;4148;47.974;7.824;2022-12-04T01:01:02;2.60;99.90
8214;DHT22;4148;47.974;7.824;2022-12-04T01:03:30;2.70;99.90
8214;DHT22;4148;47.974;7.824;2022-12-04T01:06:00;2.70;99.90
8214;DHT22;4148;47.974;7.824;2022-12-04T01:08:28;2.80;99.90
8214;DHT22;4148;47.974;7.824;2022-12-04T01:10:56;2.80;99.90
8214;DHT22;4148;47.974;7.824;2022-12-04T01:13:25;2.80;99.90
8214;DHT22;4148;47.974;7.824;2022-12-04T01:15:53;2.90;99.90
8214;DHT22;4148;47.974;7.824;2022-12-04T01:18:22;3.00;99.90
8214;DHT22;4148;47.974;7.824;2022-12-04T01:20:51;2.90;99.90
8214;DHT22;4148;47.974;7.824;2022-12-04T01:23:18;2.80;99.90
8214;DHT22;4148;47.974;7.824;2022-12-04T01:25:51;2.80;99.90
8214;DHT22;4148;47.974;7.824;2022-12-04T01:28:19;2.80;99.90
8214;DHT22;4148;47.974;7.824;2022-12-04T01:30:57;2.90;99.90
8214;DHT22;4148;47.974;7.824;2022-12-04T01:33:26;2.80;99.90
8214;DHT22;4148;47.974;7.824;2022-12-04T01:35:56;2.70;99.90
8214;DHT22;4148;47.974;7.824;2022-12-04T01:38:25;2.60;99.90
8214;DHT22;4148;47.974;7.824;2022-12-04T01:40:54;2.60;99.90
8214;DHT22;4148;47.974;7.824;2022-12-04T01:43:22;2.70;99.90
8214;DHT22;4148;47.974;7.824;2022-12-04T01:45:52;2.80;99.90
8214;DHT22;4148;47.974;7.824;2022-12-04T01:48:27;2.70;99.90
8214;DHT22;4148;47.974;7.824;2022-12-04T01:51:02;2.70;99.90
8214;DHT22;4148;47.974;7.824;2022-12-04T01:53:32;2.70;99.90
8214;DHT22;4148;47.974;7.824;2022-12-04T01:56:02;2.70;99.90
8214;DHT22;4148;47.974;7.824;2022-12-04T01:58:33;2.60;99.90
8214;DHT22;4148;47.974;7.824;2022-12-04T02:01:05;2.60;99.90
8214;DHT22;4148;47.974;7.824;2022-12-04T02:03:37;2.70;99.90
8214;DHT22;4148;47.974;7.824;2022-12-04T02:06:06;2.90;99.90
8214;DHT22;4148;47.974;7.824;2022-12-04T02:08:34;3.00;99.90
8214;DHT22;4148;47.974;7.824;2022-12-04T02:11:12;3.00;99.90
8214;DHT22;4148;47.974;7.824;2022-12-04T02:13:51;2.90;99.90
8214;DHT22;4148;47.974;7.824;2022-12-04T02:16:24;2.80;99.90
8214;DHT22;4148;47.974;7.824;2022-12-04T02:19:02;2.80;99.90
8214;DHT22;4148;47.974;7.824;2022-12-04T02:21:36;2.90;99.90
8214;DHT22;4148;47.974;7.824;2022-12-04T02:24:25;2.80;99.90
8214;DHT22;4148;47.974;7.824;2022-12-04T02:27:00;2.70;99.90
8214;DHT22;4148;47.974;7.824;2022-12-04T02:29:35;2.60;99.90
8214;DHT22;4148;47.974;7.824;2022-12-04T02:32:11;2.50;99.90
8214;DHT22;4148;47.974;7.824;2022-12-04T02:34:46;2.50;99.90
8214;DHT22;4148;47.974;7.824;2022-12-04T02:37:25;2.60;99.90
8214;DHT22;4148;47.974;7.824;2022-12-04T02:40:01;2.50;99.90
8214;DHT22;4148;47.974;7.824;2022-12-04T02:42:35;2.60;99.90
8214;DHT22;4148;47.974;7.824;2022-12-04T02:45:09;2.50;99.90
8214;DHT22;4148;47.974;7.824;2022-12-04T02:47:40;2.50;99.90
8214;DHT22;4148;47.974;7.824;2022-12-04T02:50:12;2.50;99.90
8214;DHT22;4148;47.974;7.824;2022-12-04T02:52:44;2.60;99.90
8214;DHT22;4148;47.974;7.824;2022-12-04T02:55:16;2.70;99.90
8214;DHT22;4148;47.974;7.824;2022-12-04T02:57:50;2.60;99.90
8214;DHT22;4148;47.974;7.824;2022-12-04T03:00:21;2.60;99.90
8214;DHT22;4148;47.974;7.824;2022-12-04T03:02:53;2.50;99.90
8214;DHT22;4148;47.974;7.824;2022-12-04T03:05:26;2.70;99.90
8214;DHT22;4148;47.974;7.824;2022-12-04T03:07:58;3.00;99.90
8214;DHT22;4148;47.974;7.824;2022-12-04T03:10:29;2.90;99.90
8214;DHT22;4148;47.974;7.824;2022-12-04T03:13:03;2.90;99.90
8214;DHT22;4148;47.974;7.824;2022-12-04T03:15:37;3.00;99.90
8214;DHT22;4148;47.974;7.824;2022-12-04T03:18:10;3.20;99.90
8214;DHT22;4148;47.974;7.824;2022-12-04T03:20:42;3.00;99.90
8214;DHT22;4148;47.974;7.824;2022-12-04T03:23:13;3.00;99.90
8214;DHT22;4148;47.974;7.824;2022-12-04T03:25:47;3.10;99.90
8214;DHT22;4148;47.974;7.824;2022-12-04T03:28:23;3.00;99.90
8214;DHT22;4148;47.974;7.824;2022-12-04T03:30:56;3.10;99.90
8214;DHT22;4148;47.974;7.824;2022-12-04T03:33:30;3.20;99.90
8214;DHT22;4148;47.974;7.824;2022-12-04T03:36:08;3.10;99.90
8214;DHT22;4148;47.974;7.824;2022-12-04T03:38:44;3.10;99.90
8214;DHT22;4148;47.974;7.824;2022-12-04T03:41:18;3.20;99.90
8214;DHT22;4148;47.974;7.824;2022-12-04T03:43:52;3.30;99.90
8214;DHT22;4148;47.974;7.824;2022-12-04T03:46:26;3.10;99.90
8214;DHT22;4148;47.974;7.824;2022-12-04T03:49:01;3.00;99.90
8214;DHT22;4148;47.974;7.824;2022-12-04T03:51:34;2.90;99.90
8214;DHT22;4148;47.974;7.824;2022-12-04T03:54:07;2.80;99.90
8214;DHT22;4148;47.974;7.824;2022-12-04T03:56:40;2.80;99.90
8214;DHT22;4148;47.974;7.824;2022-12-04T03:59:13;2.70;99.90
8214;DHT22;4148;47.974;7.824;2022-12-04T04:01:46;2.60;99.90
8214;DHT22;4148;47.974;7.824;2022-12-04T04:04:19;2.60;99.90
8214;DHT22;4148;47.974;7.824;2022-12-04T04:06:53;2.60;99.90
8214;DHT22;4148;47.974;7.824;2022-12-04T04:09:24;2.60;99.90
8214;DHT22;4148;47.974;7.824;2022-12-04T04:11:55;2.60;99.90
8214;DHT22;4148;47.974;7.824;2022-12-04T04:14:30;2.60;99.90
8214;DHT22;4148;47.974;7.824;2022-12-04T04:17:24;2.60;99.90
8214;DHT22;4148;47.974;7.824;2022-12-04T04:20:15;2.50;99.90
8214;DHT22;4148;47.974;7.824;2022-12-04T04:23:02;2.50;99.90
8214;DHT22;4148;47.974;7.824;2022-12-04T04:25:51;2.60;99.90
8214;DHT22;4148;47.974;7.824;2022-12-04T04:28:30;2.60;99.90
8214;DHT22;4148;47.974;7.824;2022-12-04T04:31:06;2.60;99.90
8214;DHT22;4148;47.974;7.824;2022-12-04T04:33:44;2.60;99.90
8214;DHT22;4148;47.974;7.824;2022-12-04T04:36:17;2.60;99.90
8214;DHT22;4148;47.974;7.824;2022-12-04T04:38:54;2.60;99.90
8214;DHT22;4148;47.974;7.824;2022-12-04T04:41:27;2.60;99.90
8214;DHT22;4148;47.974;7.824;2022-12-04T04:44:06;2.90;99.90
8214;DHT22;4148;47.974;7.824;2022-12-04T04:46:40;3.00;99.90
8214;DHT22;4148;47.974;7.824;2022-12-04T04:49:11;2.90;99.90
8214;DHT22;4148;47.974;7.824;2022-12-04T04:51:40;2.80;99.90
8214;DHT22;4148;47.974;7.824;2022-12-04T04:54:11;2.70;99.90
8214;DHT22;4148;47.974;7.824;2022-12-04T04:56:40;2.70;99.90
8214;DHT22;4148;47.974;7.824;2022-12-04T04:59:08;2.80;99.90
8214;DHT22;4148;47.974;7.824;2022-12-04T05:01:37;2.80;99.90
8214;DHT22;4148;47.974;7.824;2022-12-04T05:04:06;2.70;99.90
8214;DHT22;4148;47.974;7.824;2022-12-04T05:06:36;2.70;99.90
8214;DHT22;4148;47.974;7.824;2022-12-04T05:09:04;2.70;99.90
8214;DHT22;4148;47.974;7.824;2022-12-04T05:11:32;2.70;99.90
8214;DHT22;4148;47.974;7.824;2022-12-04T05:14:00;2.60;99.90
8214;DHT22;4148;47.974;7.824;2022-12-04T05:16:28;2.80;99.90
8214;DHT22;4148;47.974;7.824;2022-12-04T05:18:56;2.80;99.90
8214;DHT22;4148;47.974;7.824;2022-12-04T05:21:42;2.80;99.90
8214;DHT22;4148;47.974;7.824;2022-12-04T05:24:10;2.70;99.90
8214;DHT22;4148;47.974;7.824;2022-12-04T05:26:38;2.80;99.90
8214;DHT22;4148;47.974;7.824;2022-12-04T05:29:06;2.90;99.90
8214;DHT22;4148;47.974;7.824;2022-12-04T05:31:34;2.90;99.90
8214;DHT22;4148;47.974;7.824;2022-12-04T05:34:02;3.00;99.90
8214;DHT22;4148;47.974;7.824;2022-12-04T05:36:30;3.00;99.90
8214;DHT22;4148;47.974;7.824;2022-12-04T05:38:59;2.80;99.90
8214;DHT22;4148;47.974;7.824;2022-12-04T05:41:27;2.70;99.90
8214;DHT22;4148;47.974;7.824;2022-12-04T05:43:55;2.60;99.90
8214;DHT22;4148;47.974;7.824;2022-12-04T05:46:23;2.60;99.90
8214;DHT22;4148;47.974;7.824;2022-12-04T05:48:51;2.60;99.90
8214;DHT22;4148;47.974;7.824;2022-12-04T05:51:19;2.50;99.90
8214;DHT22;4148;47.974;7.824;2022-12-04T05:53:50;2.60;99.90
8214;DHT22;4148;47.974;7.824;2022-12-04T05:56:20;2.50;99.90
8214;DHT22;4148;47.974;7.824;2022-12-04T05:58:47;2.50;99.90
8214;DHT22;4148;47.974;7.824;2022-12-04T06:01:17;2.70;99.90
8214;DHT22;4148;47.974;7.824;2022-12-04T06:03:46;2.70;99.90
8214;DHT22;4148;47.974;7.824;2022-12-04T06:06:15;2.70;99.90
8214;DHT22;4148;47.974;7.824;2022-12-04T06:08:48;2.60;99.90
8214;DHT22;4148;47.974;7.824;2022-12-04T06:11:19;2.60;99.90
8214;DHT22;4148;47.974;7.824;2022-12-04T06:13:48;2.60;99.90
8214;DHT22;4148;47.974;7.824;2022-12-04T06:16:17;2.60;99.90
8214;DHT22;4148;47.974;7.824;2022-12-04T06:18:48;2.50;99.90
8214;DHT22;4148;47.974;7.824;2022-12-04T06:21:17;2.60;99.90
8214;DHT22;4148;47.974;7.824;2022-12-04T06:23:46;2.50;99.90
8214;DHT22;4148;47.974;7.824;2022-12-04T06:26:14;2.50;99.90
8214;DHT22;4148;47.974;7.824;2022-12-04T06:28:43;2.40;99.90
8214;DHT22;4148;47.974;7.824;2022-12-04T06:31:12;2.40;99.90
8214;DHT22;4148;47.974;7.824;2022-12-04T06:33:41;2.40;99.90
8214;DHT22;4148;47.974;7.824;2022-12-04T06:36:11;2.50;99.90
8214;DHT22;4148;47.974;7.824;2022-12-04T06:38:40;2.50;99.90
8214;DHT22;4148;47.974;7.824;2022-12-04T06:41:09;2.40;99.90
8214;DHT22;4148;47.974;7.824;2022-12-04T06:43:39;2.30;99.90
8214;DHT22;4148;47.974;7.824;2022-12-04T06:46:10;2.30;99.90
8214;DHT22;4148;47.974;7.824;2022-12-04T06:48:38;2.40;99.90
8214;DHT22;4148;47.974;7.824;2022-12-04T06:51:08;2.30;99.90
8214;DHT22;4148;47.974;7.824;2022-12-04T06:53:36;2.30;99.90
8214;DHT22;4148;47.974;7.824;2022-12-04T06:56:06;2.30;99.90
8214;DHT22;4148;47.974;7.824;2022-12-04T06:58:35;2.30;99.90
8214;DHT22;4148;47.974;7.824;2022-12-04T07:01:05;2.30;99.90
8214;DHT22;4148;47.974;7.824;2022-12-04T07:03:35;2.40;99.90
8214;DHT22;4148;47.974;7.824;2022-12-04T07:06:14;2.40;99.90
8214;DHT22;4148;47.974;7.824;2022-12-04T07:08:43;2.50;99.90
8214;DHT22;4148;47.974;7.824;2022-12-04T07:11:12;2.60;99.90
8214;DHT22;4148;47.974;7.824;2022-12-04T07:13:41;2.50;99.90
8214;DHT22;4148;47.974;7.824;2022-12-04T07:16:12;2.60;99.90
8214;DHT22;4148;47.974;7.824;2022-12-04T07:18:41;2.60;99.90
8214;DHT22;4148;47.974;7.824;2022-12-04T07:21:12;2.80;99.90
8214;DHT22;4148;47.974;7.824;2022-12-04T07:23:41;2.70;99.90
8214;DHT22;4148;47.974;7.824;2022-12-04T07:26:11;2.60;99.90
8214;DHT22;4148;47.974;7.824;2022-12-04T07:28:40;2.40;99.90
8214;DHT22;4148;47.974;7.824;2022-12-04T07:31:12;2.50;99.90
8214;DHT22;4148;47.974;7.824;2022-12-04T07:33:42;2.50;99.90
8214;DHT22;4148;47.974;7.824;2022-12-04T07:36:12;2.50;99.90
8214;DHT22;4148;47.974;7.824;2022-12-04T07:38:40;2.50;99.90
8214;DHT22;4148;47.974;7.824;2022-12-04T07:41:10;2.40;99.90
8214;DHT22;4148;47.974;7.824;2022-12-04T07:43:39;2.30;99.90
8214;DHT22;4148;47.974;7.824;2022-12-04T07:46:09;2.30;99.90
8214;DHT22;4148;47.974;7.824;2022-12-04T07:48:38;2.30;99.90
8214;DHT22;4148;47.974;7.824;2022-12-04T07:51:08;2.40;99.90
8214;DHT22;4148;47.974;7.824;2022-12-04T07:53:37;2.40;99.90
8214;DHT22;4148;47.974;7.824;2022-12-04T07:56:06;2.50;99.90
8214;DHT22;4148;47.974;7.824;2022-12-04T07:58:34;2.50;99.90
8214;DHT22;4148;47.974;7.824;2022-12-04T08:01:07;2.50;99.90
8214;DHT22;4148;47.974;7.824;2022-12-04T08:03:35;2.60;99.90
8214;DHT22;4148;47.974;7.824;2022-12-04T08:06:12;2.60;99.90
8214;DHT22;4148;47.974;7.824;2022-12-04T08:08:40;2.60;99.90
8214;DHT22;4148;47.974;7.824;2022-12-04T08:11:11;2.50;99.90
8214;DHT22;4148;47.974;7.824;2022-12-04T08:13:39;2.80;99.90
8214;DHT22;4148;47.974;7.824;2022-12-04T08:16:09;2.80;99.90
8214;DHT22;4148;47.974;7.824;2022-12-04T08:18:37;2.90;99.90
8214;DHT22;4148;47.974;7.824;2022-12-04T08:21:07;2.90;99.90
8214;DHT22;4148;47.974;7.824;2022-12-04T08:23:37;2.90;99.90
8214;DHT22;4148;47.974;7.824;2022-12-04T08:26:06;2.90;99.90
8214;DHT22;4148;47.974;7.824;2022-12-04T08:28:34;3.10;99.90
8214;DHT22;4148;47.974;7.824;2022-12-04T08:31:03;3.00;99.90
8214;DHT22;4148;47.974;7.824;2022-12-04T08:33:31;2.90;99.90
8214;DHT22;4148;47.974;7.824;2022-12-04T08:35:59;3.00;99.90
8214;DHT22;4148;47.974;7.824;2022-12-04T08:38:27;3.20;99.90
8214;DHT22;4148;47.974;7.824;2022-12-04T08:41:00;3.20;99.90
8214;DHT22;4148;47.974;7.824;2022-12-04T08:43:28;3.20;99.90
8214;DHT22;4148;47.974;7.824;2022-12-04T08:45:56;3.10;99.90
8214;DHT22;4148;47.974;7.824;2022-12-04T08:48:25;3.10;99.90
8214;DHT22;4148;47.974;7.824;2022-12-04T08:50:54;3.20;99.90
8214;DHT22;4148;47.974;7.824;2022-12-04T08:53:23;3.10;99.90
8214;DHT22;4148;47.974;7.824;2022-12-04T08:55:51;3.20;99.90
8214;DHT22;4148;47.974;7.824;2022-12-04T08:58:21;3.10;99.90
8214;DHT22;4148;47.974;7.824;2022-12-04T09:00:49;3.10;99.90
8214;DHT22;4148;47.974;7.824;2022-12-04T09:03:18;3.20;99.90
8214;DHT22;4148;47.974;7.824;2022-12-04T09:05:57;3.20;99.90
8214;DHT22;4148;47.974;7.824;2022-12-04T09:08:25;3.10;99.90
8214;DHT22;4148;47.974;7.824;2022-12-04T09:10:53;3.10;99.90
8214;DHT22;4148;47.974;7.824;2022-12-04T09:13:22;3.10;99.90
8214;DHT22;4148;47.974;7.824;2022-12-04T09:15:50;3.30;99.90
8214;DHT22;4148;47.974;7.824;2022-12-04T09:18:18;3.30;99.90
8214;DHT22;4148;47.974;7.824;2022-12-04T09:20:54;3.20;99.90
8214;DHT22;4148;47.974;7.824;2022-12-04T09:23:23;3.20;99.90
8214;DHT22;4148;47.974;7.824;2022-12-04T09:25:51;3.20;99.90
8214;DHT22;4148;47.974;7.824;2022-12-04T09:28:19;3.30;99.90
8214;DHT22;4148;47.974;7.824;2022-12-04T09:30:57;3.30;99.90
8214;DHT22;4148;47.974;7.824;2022-12-04T09:33:25;3.40;99.90
8214;DHT22;4148;47.974;7.824;2022-12-04T09:35:53;3.40;99.90
8214;DHT22;4148;47.974;7.824;2022-12-04T09:38:21;3.30;99.90
8214;DHT22;4148;47.974;7.824;2022-12-04T09:40:54;3.30;99.90
8214;DHT22;4148;47.974;7.824;2022-12-04T09:43:30;3.30;99.90
8214;DHT22;4148;47.974;7.824;2022-12-04T09:46:08;3.40;99.90
8214;DHT22;4148;47.974;7.824;2022-12-04T09:48:38;3.50;99.90
8214;DHT22;4148;47.974;7.824;2022-12-04T09:51:09;3.50;99.90
8214;DHT22;4148;47.974;7.824;2022-12-04T09:53:45;3.50;99.90
8214;DHT22;4148;47.974;7.824;2022-12-04T09:56:16;3.50;99.90
8214;DHT22;4148;47.974;7.824;2022-12-04T09:58:49;3.40;99.90
8214;DHT22;4148;47.974;7.824;2022-12-04T10:01:22;3.40;99.90
8214;DHT22;4148;47.974;7.824;2022-12-04T10:03:52;3.40;99.90
8214;DHT22;4148;47.974;7.824;2022-12-04T10:06:26;3.40;99.90
8214;DHT22;4148;47.974;7.824;2022-12-04T10:09:00;3.40;99.90
8214;DHT22;4148;47.974;7.824;2022-12-04T10:11:38;3.50;99.90
8214;DHT22;4148;47.974;7.824;2022-12-04T10:17:17;3.40;99.90
8214;DHT22;4148;47.974;7.824;2022-12-04T10:19:58;3.40;99.90
8214;DHT22;4148;47.974;7.824;2022-12-04T10:22:36;3.40;99.90
8214;DHT22;4148;47.974;7.824;2022-12-04T10:25:10;3.60;99.90
8214;DHT22;4148;47.974;7.824;2022-12-04T10:27:41;3.50;99.90
8214;DHT22;4148;47.974;7.824;2022-12-04T10:30:18;3.50;99.90
8214;DHT22;4148;47.974;7.824;2022-12-04T10:32:52;3.50;99.90
8214;DHT22;4148;47.974;7.824;2022-12-04T10:35:24;3.50;99.90
8214;DHT22;4148;47.974;7.824;2022-12-04T10:37:56;3.50;99.90
8214;DHT22;4148;47.974;7.824;2022-12-04T10:40:30;3.50;99.90
8214;DHT22;4148;47.974;7.824;2022-12-04T10:43:03;3.60;99.90
8214;DHT22;4148;47.974;7.824;2022-12-04T10:45:32;3.70;99.90
8214;DHT22;4148;47.974;7.824;2022-12-04T10:48:01;3.60;99.90
8214;DHT22;4148;47.974;7.824;2022-12-04T10:50:29;3.70;99.90
8214;DHT22;4148;47.974;7.824;2022-12-04T10:52:57;3.80;99.90
8214;DHT22;4148;47.974;7.824;2022-12-04T10:55:30;3.80;99.90
8214;DHT22;4148;47.974;7.824;2022-12-04T10:57:58;3.70;99.90
8214;DHT22;4148;47.974;7.824;2022-12-04T11:00:30;3.60;99.90
8214;DHT22;4148;47.974;7.824;2022-12-04T11:03:01;3.60;99.90
8214;DHT22;4148;47.974;7.824;2022-12-04T11:05:31;3.70;99.90
8214;DHT22;4148;47.974;7.824;2022-12-04T11:08:03;4.00;99.90
8214;DHT22;4148;47.974;7.824;2022-12-04T11:10:34;3.90;99.90
8214;DHT22;4148;47.974;7.824;2022-12-04T11:13:05;3.80;99.90
8214;DHT22;4148;47.974;7.824;2022-12-04T11:15:40;4.00;99.90
8214;DHT22;4148;47.974;7.824;2022-12-04T11:18:16;4.10;99.90
8214;DHT22;4148;47.974;7.824;2022-12-04T11:20:49;3.90;99.90
8214;DHT22;4148;47.974;7.824;2022-12-04T11:23:18;3.70;99.90
8214;DHT22;4148;47.974;7.824;2022-12-04T11:25:49;3.70;99.90
8214;DHT22;4148;47.974;7.824;2022-12-04T11:28:20;3.60;99.90
8214;DHT22;4148;47.974;7.824;2022-12-04T11:31:09;3.50;99.90
8214;DHT22;4148;47.974;7.824;2022-12-04T11:33:44;3.40;99.90
8214;DHT22;4148;47.974;7.824;2022-12-04T11:36:18;3.40;99.90
8214;DHT22;4148;47.974;7.824;2022-12-04T11:38:47;3.50;99.90
8214;DHT22;4148;47.974;7.824;2022-12-04T11:41:25;3.50;99.90
8214;DHT22;4148;47.974;7.824;2022-12-04T11:43:54;3.60;99.90
8214;DHT22;4148;47.974;7.824;2022-12-04T11:46:28;3.40;99.90
8214;DHT22;4148;47.974;7.824;2022-12-04T11:48:57;3.40;99.90
8214;DHT22;4148;47.974;7.824;2022-12-04T11:51:34;3.60;99.90
8214;DHT22;4148;47.974;7.824;2022-12-04T11:54:11;3.50;99.90
8214;DHT22;4148;47.974;7.824;2022-12-04T11:56:46;3.40;99.90
8214;DHT22;4148;47.974;7.824;2022-12-04T11:59:35;3.40;99.90
8214;DHT22;4148;47.974;7.824;2022-12-04T12:02:21;3.30;99.90
8214;DHT22;4148;47.974;7.824;2022-12-04T12:05:14;3.50;99.90
8214;DHT22;4148;47.974;7.824;2022-12-04T12:07:52;3.40;99.90
8214;DHT22;4148;47.974;7.824;2022-12-04T12:10:35;3.50;99.90
8214;DHT22;4148;47.974;7.824;2022-12-04T12:13:16;3.70;99.90
8214;DHT22;4148;47.974;7.824;2022-12-04T12:15:54;3.50;99.90
8214;DHT22;4148;47.974;7.824;2022-12-04T12:18:44;3.70;99.90
8214;DHT22;4148;47.974;7.824;2022-12-04T12:21:22;3.50;99.90
8214;DHT22;4148;47.974;7.824;2022-12-04T12:24:15;3.40;99.90
8214;DHT22;4148;47.974;7.824;2022-12-04T12:26:48;3.40;99.90
8214;DHT22;4148;47.974;7.824;2022-12-04T12:29:27;3.30;99.90
8214;DHT22;4148;47.974;7.824;2022-12-04T12:32:09;3.20;99.90
8214;DHT22;4148;47.974;7.824;2022-12-04T12:34:44;3.10;99.90
8214;DHT22;4148;47.974;7.824;2022-12-04T12:37:21;3.20;99.90
8214;DHT22;4148;47.974;7.824;2022-12-04T12:39:56;3.20;99.90
8214;DHT22;4148;47.974;7.824;2022-12-04T12:42:29;3.20;99.90
8214;DHT22;4148;47.974;7.824;2022-12-04T12:45:03;3.20;99.90
8214;DHT22;4148;47.974;7.824;2022-12-04T12:47:38;3.30;99.90
8214;DHT22;4148;47.974;7.824;2022-12-04T12:50:14;3.30;99.90
8214;DHT22;4148;47.974;7.824;2022-12-04T12:52:48;3.30;99.90
8214;DHT22;4148;47.974;7.824;2022-12-04T12:55:23;3.20;99.90
8214;DHT22;4148;47.974;7.824;2022-12-04T12:57:58;3.20;99.90
8214;DHT22;4148;47.974;7.824;2022-12-04T13:00:29;3.20;99.90
8214;DHT22;4148;47.974;7.824;2022-12-04T13:03:02;3.30;99.90
8214;DHT22;4148;47.974;7.824;2022-12-04T13:05:34;3.30;99.90
8214;DHT22;4148;47.974;7.824;2022-12-04T13:08:13;3.30;99.90
8214;DHT22;4148;47.974;7.824;2022-12-04T13:10:45;3.40;99.90
8214;DHT22;4148;47.974;7.824;2022-12-04T13:13:18;3.40;99.90
8214;DHT22;4148;47.974;7.824;2022-12-04T13:15:49;3.40;99.90
8214;DHT22;4148;47.974;7.824;2022-12-04T13:18:23;3.30;99.90
8214;DHT22;4148;47.974;7.824;2022-12-04T13:20:55;3.30;99.90
8214;DHT22;4148;47.974;7.824;2022-12-04T13:23:39;3.50;99.90
8214;DHT22;4148;47.974;7.824;2022-12-04T13:26:17;3.40;99.90
8214;DHT22;4148;47.974;7.824;2022-12-04T13:28:52;3.40;99.90
8214;DHT22;4148;47.974;7.824;2022-12-04T13:31:26;3.50;99.90
8214;DHT22;4148;47.974;7.824;2022-12-04T13:34:30;3.40;99.90
8214;DHT22;4148;47.974;7.824;2022-12-04T13:37:11;3.40;99.90
8214;DHT22;4148;47.974;7.824;2022-12-04T13:40:30;3.40;99.90
8214;DHT22;4148;47.974;7.824;2022-12-04T13:43:26;3.40;99.90
8214;DHT22;4148;47.974;7.824;2022-12-04T13:45:57;3.40;99.90
8214;DHT22;4148;47.974;7.824;2022-12-04T13:48:35;3.30;99.90
8214;DHT22;4148;47.974;7.824;2022-12-04T13:51:33;3.30;99.90
8214;DHT22;4148;47.974;7.824;2022-12-04T13:54:21;3.40;99.90
8214;DHT22;4148;47.974;7.824;2022-12-04T13:56:51;3.50;99.90
8214;DHT22;4148;47.974;7.824;2022-12-04T13:59:23;3.50;99.90
8214;DHT22;4148;47.974;7.824;2022-12-04T14:01:52;3.70;99.90
8214;DHT22;4148;47.974;7.824;2022-12-04T14:04:26;3.70;99.90
8214;DHT22;4148;47.974;7.824;2022-12-04T14:06:57;3.70;99.90
8214;DHT22;4148;47.974;7.824;2022-12-04T14:09:27;3.60;99.90
8214;DHT22;4148;47.974;7.824;2022-12-04T14:12:00;3.70;99.90
8214;DHT22;4148;47.974;7.824;2022-12-04T14:14:41;3.60;99.90
8214;DHT22;4148;47.974;7.824;2022-12-04T14:17:16;3.60;99.90
8214;DHT22;4148;47.974;7.824;2022-12-04T14:19:51;3.70;99.90
8214;DHT22;4148;47.974;7.824;2022-12-04T14:22:41;3.60;99.90
8214;DHT22;4148;47.974;7.824;2022-12-04T14:25:31;3.60;99.90
8214;DHT22;4148;47.974;7.824;2022-12-04T14:28:11;3.60;99.90
8214;DHT22;4148;47.974;7.824;2022-12-04T14:30:40;3.70;99.90
8214;DHT22;4148;47.974;7.824;2022-12-04T14:33:16;3.70;99.90
8214;DHT22;4148;47.974;7.824;2022-12-04T14:35:48;3.60;99.90
8214;DHT22;4148;47.974;7.824;2022-12-04T14:38:20;3.50;99.90
8214;DHT22;4148;47.974;7.824;2022-12-04T14:40:50;3.40;99.90
8214;DHT22;4148;47.974;7.824;2022-12-04T14:43:22;3.50;99.90
8214;DHT22;4148;47.974;7.824;2022-12-04T14:45:55;3.40;99.90
8214;DHT22;4148;47.974;7.824;2022-12-04T14:48:32;3.40;99.90
8214;DHT22;4148;47.974;7.824;2022-12-04T14:51:09;3.40;99.90
8214;DHT22;4148;47.974;7.824;2022-12-04T14:53:43;3.50;99.90
8214;DHT22;4148;47.974;7.824;2022-12-04T14:56:28;3.50;99.90
8214;DHT22;4148;47.974;7.824;2022-12-04T14:59:04;3.50;99.90
8214;DHT22;4148;47.974;7.824;2022-12-04T15:01:36;3.50;99.90
8214;DHT22;4148;47.974;7.824;2022-12-04T15:04:10;3.50;99.90
8214;DHT22;4148;47.974;7.824;2022-12-04T15:06:39;3.40;99.90
8214;DHT22;4148;47.974;7.824;2022-12-04T15:09:14;3.50;99.90
8214;DHT22;4148;47.974;7.824;2022-12-04T15:12:13;3.70;99.90
8214;DHT22;4148;47.974;7.824;2022-12-04T15:15:16;3.60;99.90
8214;DHT22;4148;47.974;7.824;2022-12-04T15:17:58;3.50;99.90
8214;DHT22;4148;47.974;7.824;2022-12-04T15:20:28;3.40;99.90
8214;DHT22;4148;47.974;7.824;2022-12-04T15:23:04;3.30;99.90
8214;DHT22;4148;47.974;7.824;2022-12-04T15:25:36;3.30;99.90
8214;DHT22;4148;47.974;7.824;2022-12-04T15:28:10;3.40;99.90
8214;DHT22;4148;47.974;7.824;2022-12-04T15:30:42;3.30;99.90
8214;DHT22;4148;47.974;7.824;2022-12-04T15:33:14;3.20;99.90
8214;DHT22;4148;47.974;7.824;2022-12-04T15:35:51;3.20;99.90
8214;DHT22;4148;47.974;7.824;2022-12-04T15:38:20;3.20;99.90
8214;DHT22;4148;47.974;7.824;2022-12-04T15:40:50;3.10;99.90
8214;DHT22;4148;47.974;7.824;2022-12-04T15:43:27;3.20;99.90
8214;DHT22;4148;47.974;7.824;2022-12-04T15:45:57;3.20;99.90
8214;DHT22;4148;47.974;7.824;2022-12-04T15:48:27;3.30;99.90
8214;DHT22;4148;47.974;7.824;2022-12-04T15:50:57;3.40;99.90
8214;DHT22;4148;47.974;7.824;2022-12-04T15:53:28;3.30;99.90
8214;DHT22;4148;47.974;7.824;2022-12-04T15:56:00;3.30;99.90
8214;DHT22;4148;47.974;7.824;2022-12-04T15:58:30;3.50;99.90
8214;DHT22;4148;47.974;7.824;2022-12-04T16:01:02;3.50;99.90
8214;DHT22;4148;47.974;7.824;2022-12-04T16:03:44;3.40;99.90
8214;DHT22;4148;47.974;7.824;2022-12-04T16:06:17;3.50;99.90
8214;DHT22;4148;47.974;7.824;2022-12-04T16:08:48;3.60;99.90
8214;DHT22;4148;47.974;7.824;2022-12-04T16:11:28;3.40;99.90
8214;DHT22;4148;47.974;7.824;2022-12-04T16:14:15;3.30;99.90
8214;DHT22;4148;47.974;7.824;2022-12-04T16:16:46;3.30;99.90
8214;DHT22;4148;47.974;7.824;2022-12-04T16:19:19;3.30;99.90
8214;DHT22;4148;47.974;7.824;2022-12-04T16:21:49;3.50;99.90
8214;DHT22;4148;47.974;7.824;2022-12-04T16:24:17;3.50;99.90
8214;DHT22;4148;47.974;7.824;2022-12-04T16:26:47;3.60;99.90
8214;DHT22;4148;47.974;7.824;2022-12-04T16:29:15;3.50;99.90
8214;DHT22;4148;47.974;7.824;2022-12-04T16:31:45;3.50;99.90
8214;DHT22;4148;47.974;7.824;2022-12-04T16:34:13;3.50;99.90
8214;DHT22;4148;47.974;7.824;2022-12-04T16:36:41;3.30;99.90
8214;DHT22;4148;47.974;7.824;2022-12-04T16:39:09;3.40;99.90
8214;DHT22;4148;47.974;7.824;2022-12-04T16:41:37;3.50;99.90
8214;DHT22;4148;47.974;7.824;2022-12-04T16:44:11;3.50;99.90
8214;DHT22;4148;47.974;7.824;2022-12-04T16:46:40;3.50;99.90
8214;DHT22;4148;47.974;7.824;2022-12-04T16:49:11;3.60;99.90
8214;DHT22;4148;47.974;7.824;2022-12-04T16:51:41;3.50;99.90
8214;DHT22;4148;47.974;7.824;2022-12-04T16:54:11;3.40;99.90
8214;DHT22;4148;47.974;7.824;2022-12-04T16:56:39;3.40;99.90